Laramie, WY

2:25 AM MDT on September 05, 2015 (GMT -0600)
Sheep Mountain East - Wild Horse Ranch | | Change Station
CLOSE
Current Station
Personal Weather Station
Location: Laramie, WY
Elevation: 7700 ft
Nearby Weather Stations
Active Advisory: Fire Weather Watch

Elev 7700 ft 41.24 °N, 106.00 °W | Updated 1 minute ago

Overcast
Overcast
58.5 °F
Feels Like 58.5 °F
N
1.0
Wind Variable Wind from NE
Gusts 4.0 mph

Today
High -- | Low -- °F
--% Chance of Precip.
Yesterday
High -- | Low -- °F
Precip. -- in
6:32 AM 7:28 PM
Waning Gibbous, 51% visible
Pressure 29.75 in
Visibility 10.0 miles
Clouds Few 12000 ft
Dew Point 45 °F
Humidity 60%
Rainfall 0.00 in
Snow Depth Not available.
UV 0 out of 12
Pollen 9.90 out of 12
Air Quality Not available.
Flu Activity Not available.
METAR KLAR 050753Z AUTO VRB03KT 10SM FEW120 14/07 A3009 RMK AO2 SLP075 T01390072
Pressure 29.75 in
Visibility 10.0 miles
Clouds Few 12000 ft
Dew Point 45 °F
Humidity 60%
Rainfall 0.00 in
Snow Depth Not available.
UV 0 out of 12
Pollen 9.90 out of 12
Air Quality Not available.
Flu Activity Not available.
METAR KLAR 050753Z AUTO VRB03KT 10SM FEW120 14/07 A3009 RMK AO2 SLP075 T01390072

10-Day Weather Forecast

×

Almanac

Astronomy

Sep. 05, 2015 Rise Set
Actual Time
Civil Twilight
Nautical Twilight
Astronomical Twilight
Moon
Length of Visible Light
Length of Day
Tomorrow will be .
, % of the Moon is Illuminated

Today's Extremes

State Highs State Lows

Community

WunderPhotos

Upload Photos

1,852,439 photos uploaded!

WunderBlogs® & News

Nearby

Air Quality

  Air Quality AQ Index Pollutant
Not available.

Snow Depth

Station Depth Elevation

Earthquake Activity

City Distance Mag. Time & Date
Minimum magnitude displayed is 2.5.

Coastal Water Temperatures

Place Temperature

Stations

Nearby Weather Stations

Station Location Temp. Windchill Dew Point Humidity Wind Precip. Elev Updated Type
                   
Fire Weather Watch
Statement as of 3:17 PM MDT on September 04, 2015

... Fire Weather Watch in effect from Sunday morning through
Sunday evening for low humidity and gusty winds for fire weather
zones 301... 302... 303 and 308...

The National Weather Service in Cheyenne has issued a Fire
Weather Watch... which is in effect from Sunday morning through
Sunday evening.

* Affected area... fire weather zones 301... 302... 303 and 308.

* Wind... sustained west wind 15 to 25 mph with gusts 30 to 40
mph.

* Humidity... minimum relative humidity of 10 to 20 percent.

* Impacts... any fires that develop will likely spread rapidly.
Outdoor burning is not recommended.

Precautionary/preparedness actions...

A Fire Weather Watch means that critical fire weather conditions
are forecast to occur. Listen for later forecasts and possible
red flag warnings.